Time;durP1;ratioP1;P1;durP2;ratioP2;P2;SDS_P1;SDS_P2;PMS_P1;PMS_P2;Temp;Humidity;BMP_temperature;BMP_pressure;BME280_temperature;BME280_humidity;BME280_pressure;Samples;Min_cycle;Max_cycle;Signal;HPM_P1;HPM_P2
2022/03/02 00:01:54;;;;;;;24.50;13.85;;;;;;;;;;4939897;28;20329;-81
2022/03/02 00:04:20;;;;;;;24.42;15.13;;;;;;;;;;4941161;28;20066;-79
2022/03/02 00:06:46;;;;;;;23.77;14.45;;;;;;;;;;4945749;28;20042;-80
2022/03/02 00:09:12;;;;;;;21.88;14.27;;;;;;;;;;4943957;28;20122;-80
2022/03/02 00:11:38;;;;;;;26.42;13.90;;;;;;;;;;4933526;28;20489;-80
2022/03/02 00:14:05;;;;;;;27.42;14.32;;;;;;;;;;4951557;28;20595;-79
2022/03/02 00:16:31;;;;;;;26.65;15.90;;;;;;;;;;4931686;28;20043;-80
2022/03/02 00:18:58;;;;;;;25.42;15.55;;;;;;;;;;4953112;28;20579;-80
2022/03/02 00:21:23;;;;;;;28.75;16.13;;;;;;;;;;4943832;28;20039;-80
2022/03/02 00:23:49;;;;;;;27.58;15.52;;;;;;;;;;4960077;28;20679;-80
2022/03/02 00:26:15;;;;;;;27.38;15.18;;;;;;;;;;4994408;28;20073;-80
2022/03/02 00:28:41;;;;;;;24.88;15.05;;;;;;;;;;4954664;28;20236;-80
2022/03/02 00:31:07;;;;;;;24.42;15.57;;;;;;;;;;4965849;28;20041;-79
2022/03/02 00:33:33;;;;;;;29.83;16.77;;;;;;;;;;4925357;28;20043;-80
2022/03/02 00:35:59;;;;;;;28.13;17.13;;;;;;;;;;4943495;28;20042;-80
2022/03/02 00:38:24;;;;;;;27.92;16.65;;;;;;;;;;4957255;28;20066;-80
2022/03/02 00:40:50;;;;;;;24.52;15.27;;;;;;;;;;4948855;28;20042;-80
2022/03/02 00:43:16;;;;;;;27.38;15.68;;;;;;;;;;4957666;28;20911;-80
2022/03/02 00:45:43;;;;;;;26.20;15.45;;;;;;;;;;4963458;28;20039;-80
2022/03/02 00:48:09;;;;;;;25.67;14.35;;;;;;;;;;4944066;28;20496;-80
2022/03/02 00:50:35;;;;;;;26.42;15.13;;;;;;;;;;4949034;28;20040;-80
2022/03/02 00:53:02;;;;;;;27.05;14.90;;;;;;;;;;4947230;28;20042;-80
2022/03/02 00:55:28;;;;;;;23.38;14.18;;;;;;;;;;4935897;28;20048;-80
2022/03/02 00:57:54;;;;;;;22.65;14.23;;;;;;;;;;4943257;28;20086;-80
2022/03/02 01:00:20;;;;;;;20.92;13.60;;;;;;;;;;4954649;28;20035;-80
2022/03/02 01:02:46;;;;;;;24.45;13.52;;;;;;;;;;4936017;28;20042;-80
2022/03/02 01:05:12;;;;;;;22.58;13.52;;;;;;;;;;4927201;28;20617;-80
2022/03/02 01:07:39;;;;;;;21.58;12.40;;;;;;;;;;4933242;29;20051;-80
2022/03/02 01:10:06;;;;;;;25.25;13.82;;;;;;;;;;4946034;28;20154;-80
2022/03/02 01:12:32;;;;;;;23.63;14.75;;;;;;;;;;4945378;28;20055;-80
2022/03/02 01:14:58;;;;;;;20.90;13.40;;;;;;;;;;4927011;28;20043;-80
2022/03/02 01:17:24;;;;;;;22.05;13.00;;;;;;;;;;4952839;28;20411;-79
2022/03/02 01:19:50;;;;;;;25.95;13.70;;;;;;;;;;4933726;28;20489;-79
2022/03/02 01:22:18;;;;;;;25.67;12.80;;;;;;;;;;4953426;28;20043;-80
2022/03/02 01:24:44;;;;;;;21.70;13.75;;;;;;;;;;4930936;28;20054;-79
2022/03/02 01:27:09;;;;;;;20.65;13.40;;;;;;;;;;4932789;28;20074;-80
2022/03/02 01:29:35;;;;;;;25.95;14.23;;;;;;;;;;4964052;28;20047;-80
2022/03/02 01:32:06;;;;;;;23.95;13.52;;;;;;;;;;4948764;28;20042;-80
2022/03/02 01:34:32;;;;;;;25.65;13.73;;;;;;;;;;4955487;28;20055;-79
2022/03/02 01:36:58;;;;;;;23.95;13.75;;;;;;;;;;4965671;28;20159;-79
2022/03/02 01:39:23;;;;;;;23.75;13.90;;;;;;;;;;4942006;28;20063;-79
2022/03/02 01:41:49;;;;;;;25.77;13.75;;;;;;;;;;4937869;28;20059;-80
2022/03/02 01:44:16;;;;;;;25.95;13.57;;;;;;;;;;4949403;28;20446;-79
2022/03/02 01:46:42;;;;;;;26.65;13.52;;;;;;;;;;4956579;28;20043;-79
2022/03/02 01:49:09;;;;;;;23.35;12.75;;;;;;;;;;4950370;28;20047;-80
2022/03/02 01:51:34;;;;;;;22.15;13.75;;;;;;;;;;4955860;28;20098;-79
2022/03/02 01:54:00;;;;;;;25.23;13.40;;;;;;;;;;4947189;28;20043;-79
2022/03/02 01:56:28;;;;;;;26.98;14.32;;;;;;;;;;4958370;28;20151;-80
2022/03/02 01:58:54;;;;;;;28.27;14.25;;;;;;;;;;4941746;28;20050;-79
2022/03/02 02:01:20;;;;;;;22.77;13.80;;;;;;;;;;4946418;28;20043;-79
2022/03/02 02:03:46;;;;;;;26.42;13.75;;;;;;;;;;4943606;28;20039;-79
2022/03/02 02:06:13;;;;;;;29.58;14.77;;;;;;;;;;4953102;28;20467;-79
2022/03/02 02:08:40;;;;;;;31.17;14.90;;;;;;;;;;4965207;28;20043;-79
2022/03/02 02:11:06;;;;;;;24.85;14.25;;;;;;;;;;4947441;28;20043;-79
2022/03/02 02:13:34;;;;;;;22.13;13.40;;;;;;;;;;4947759;28;20489;-79
2022/03/02 02:16:00;;;;;;;21.17;13.77;;;;;;;;;;4954727;28;20035;-80
2022/03/02 02:18:26;;;;;;;26.30;14.68;;;;;;;;;;4943987;28;20063;-79
2022/03/02 02:20:52;;;;;;;23.42;14.60;;;;;;;;;;4965607;28;20436;-79
2022/03/02 02:23:19;;;;;;;22.83;13.45;;;;;;;;;;4963726;28;20042;-79
2022/03/02 02:25:44;;;;;;;21.88;13.35;;;;;;;;;;4951908;28;20047;-79
2022/03/02 02:28:10;;;;;;;25.58;15.07;;;;;;;;;;4948348;28;20109;-79
2022/03/02 02:30:38;;;;;;;26.38;14.48;;;;;;;;;;4944865;28;20043;-79
2022/03/02 02:33:05;;;;;;;25.02;13.50;;;;;;;;;;4945541;28;20049;-79
2022/03/02 02:35:31;;;;;;;24.70;14.43;;;;;;;;;;4943222;28;20521;-79
2022/03/02 02:37:58;;;;;;;27.45;14.88;;;;;;;;;;4964404;28;20040;-79
2022/03/02 02:40:26;;;;;;;25.95;14.02;;;;;;;;;;4956416;28;20038;-79
2022/03/02 02:42:52;;;;;;;25.92;14.68;;;;;;;;;;4953389;28;20392;-79
2022/03/02 02:45:22;;;;;;;22.42;13.98;;;;;;;;;;4950343;28;20031;-79
2022/03/02 02:47:55;;;;;;;24.67;14.27;;;;;;;;;;4955778;28;20035;-79
2022/03/02 02:50:24;;;;;;;24.10;14.27;;;;;;;;;;4946424;28;20420;-79
2022/03/02 02:52:53;;;;;;;25.95;14.65;;;;;;;;;;4951741;28;20134;-79
2022/03/02 02:55:20;;;;;;;22.77;13.68;;;;;;;;;;4949103;28;20069;-79
2022/03/02 02:57:46;;;;;;;27.65;14.63;;;;;;;;;;4954325;28;20046;-79
2022/03/02 03:00:16;;;;;;;22.35;14.30;;;;;;;;;;4950240;28;20047;-79
2022/03/02 03:02:47;;;;;;;28.15;14.75;;;;;;;;;;4964988;28;20488;-79
2022/03/02 03:05:15;;;;;;;26.77;15.48;;;;;;;;;;4964467;28;20042;-77
2022/03/02 03:07:45;;;;;;;27.75;15.65;;;;;;;;;;4963848;28;20070;-78
2022/03/02 03:10:11;;;;;;;27.85;15.63;;;;;;;;;;4975753;28;20580;-77
2022/03/02 03:12:38;;;;;;;27.13;15.02;;;;;;;;;;4954457;28;20531;-77
2022/03/02 03:15:05;;;;;;;27.77;15.25;;;;;;;;;;4948278;28;20053;-77
2022/03/02 03:17:31;;;;;;;24.85;14.82;;;;;;;;;;4931208;28;20042;-77
2022/03/02 03:19:57;;;;;;;27.08;15.55;;;;;;;;;;4954557;28;20046;-78
2022/03/02 03:22:22;;;;;;;24.98;14.48;;;;;;;;;;4945530;28;20512;-78
2022/03/02 03:24:48;;;;;;;28.30;15.55;;;;;;;;;;4953794;28;20063;-77
2022/03/02 03:27:15;;;;;;;28.27;15.70;;;;;;;;;;4955810;28;20559;-77
2022/03/02 03:29:41;;;;;;;28.33;15.65;;;;;;;;;;4946252;28;20053;-77
2022/03/02 03:32:07;;;;;;;25.42;15.48;;;;;;;;;;4942314;28;20043;-77
2022/03/02 03:34:35;;;;;;;24.85;15.80;;;;;;;;;;4946711;28;20340;-78
2022/03/02 03:37:02;;;;;;;28.05;15.75;;;;;;;;;;4925908;28;20063;-77
2022/03/02 03:39:27;;;;;;;27.80;16.17;;;;;;;;;;4934450;28;20255;-77
2022/03/02 03:41:55;;;;;;;30.27;15.88;;;;;;;;;;4935021;28;20050;-77
2022/03/02 03:44:21;;;;;;;23.30;16.38;;;;;;;;;;4957161;28;20039;-77
2022/03/02 03:46:47;;;;;;;28.10;15.57;;;;;;;;;;4942108;28;20054;-77
2022/03/02 03:49:13;;;;;;;24.02;15.02;;;;;;;;;;4950772;28;20078;-77
2022/03/02 03:51:39;;;;;;;25.75;16.60;;;;;;;;;;4928680;28;20043;-77
2022/03/02 03:54:05;;;;;;;27.63;16.38;;;;;;;;;;4979655;28;20551;-77
2022/03/02 03:56:31;;;;;;;27.80;15.55;;;;;;;;;;4951792;28;20049;-77
2022/03/02 03:58:59;;;;;;;24.75;16.13;;;;;;;;;;4949516;28;20103;-77
2022/03/02 04:01:25;;;;;;;25.48;15.25;;;;;;;;;;4957854;28;20031;-77
2022/03/02 04:03:51;;;;;;;29.73;16.48;;;;;;;;;;4929179;28;20408;-77
2022/03/02 04:06:16;;;;;;;31.60;16.55;;;;;;;;;;4947708;28;20508;-77
2022/03/02 04:08:42;;;;;;;26.65;16.10;;;;;;;;;;4951937;28;20461;-77
2022/03/02 04:11:08;;;;;;;28.17;16.17;;;;;;;;;;4946068;28;20050;-77
2022/03/02 04:13:34;;;;;;;26.13;16.00;;;;;;;;;;4944217;28;20118;-77
2022/03/02 04:16:00;;;;;;;33.30;16.70;;;;;;;;;;4942703;28;20059;-77
2022/03/02 04:18:26;;;;;;;26.83;16.98;;;;;;;;;;4963050;28;20055;-77
2022/03/02 04:20:54;;;;;;;27.00;16.92;;;;;;;;;;4958852;28;20063;-77
2022/03/02 04:23:22;;;;;;;31.67;17.20;;;;;;;;;;4962306;28;20043;-77
2022/03/02 04:25:48;;;;;;;28.33;16.75;;;;;;;;;;4963129;28;20039;-77
2022/03/02 04:28:14;;;;;;;30.80;16.58;;;;;;;;;;4942334;28;20047;-77
2022/03/02 04:30:40;;;;;;;29.23;16.85;;;;;;;;;;4935582;28;20043;-77
2022/03/02 04:33:05;;;;;;;31.88;17.00;;;;;;;;;;4969915;28;20063;-77
2022/03/02 04:35:31;;;;;;;28.27;16.98;;;;;;;;;;4948904;28;20043;-77
2022/03/02 04:37:57;;;;;;;30.88;16.27;;;;;;;;;;4948928;28;20498;-77
2022/03/02 04:40:24;;;;;;;24.63;15.82;;;;;;;;;;4940459;28;20039;-77
2022/03/02 04:42:50;;;;;;;30.25;16.55;;;;;;;;;;4956489;28;20122;-77
2022/03/02 04:45:15;;;;;;;29.52;16.65;;;;;;;;;;4927687;28;20065;-77
2022/03/02 04:47:42;;;;;;;33.72;17.15;;;;;;;;;;4926746;28;20039;-77
2022/03/02 04:50:09;;;;;;;29.00;17.50;;;;;;;;;;4939016;28;20049;-77
2022/03/02 04:52:34;;;;;;;27.23;16.92;;;;;;;;;;4928721;28;20328;-77
2022/03/02 04:55:06;;;;;;;35.10;18.30;;;;;;;;;;4938464;28;20040;-77
2022/03/02 04:57:37;;;;;;;31.65;18.40;;;;;;;;;;4943690;28;20130;-77
2022/03/02 05:00:08;;;;;;;32.20;17.48;;;;;;;;;;4951831;28;20139;-77
2022/03/02 05:02:35;;;;;;;30.80;17.35;;;;;;;;;;4959471;28;20050;-77
2022/03/02 05:05:01;;;;;;;30.88;18.25;;;;;;;;;;4926180;28;20035;-77
2022/03/02 05:07:26;;;;;;;32.83;17.70;;;;;;;;;;4947615;28;20073;-77
2022/03/02 05:09:52;;;;;;;31.23;19.08;;;;;;;;;;4937864;28;20492;-77
2022/03/02 05:12:20;;;;;;;33.08;19.35;;;;;;;;;;4952623;28;20070;-77
2022/03/02 05:14:46;;;;;;;35.08;19.60;;;;;;;;;;4954656;28;20455;-77
2022/03/02 05:17:12;;;;;;;31.70;18.70;;;;;;;;;;4963453;28;20399;-77
2022/03/02 05:19:39;;;;;;;30.95;19.23;;;;;;;;;;4962065;28;20359;-77
2022/03/02 05:22:09;;;;;;;31.90;19.00;;;;;;;;;;4941275;28;20131;-77
2022/03/02 05:24:35;;;;;;;32.25;19.33;;;;;;;;;;4931679;28;20035;-77
2022/03/02 05:27:00;;;;;;;33.55;19.65;;;;;;;;;;4941595;28;20126;-77
2022/03/02 05:29:26;;;;;;;32.70;18.30;;;;;;;;;;4927076;28;20618;-77
2022/03/02 05:31:52;;;;;;;32.80;18.25;;;;;;;;;;4926477;28;20067;-77
2022/03/02 05:34:18;;;;;;;36.47;20.45;;;;;;;;;;4960979;28;20031;-77
2022/03/02 05:36:44;;;;;;;34.35;19.70;;;;;;;;;;4946942;28;20027;-77
2022/03/02 05:39:10;;;;;;;31.38;19.70;;;;;;;;;;4961183;28;20074;-77
2022/03/02 05:41:36;;;;;;;37.80;19.27;;;;;;;;;;4953299;28;20696;-77
2022/03/02 05:44:07;;;;;;;34.17;19.60;;;;;;;;;;4938557;28;20161;-77
2022/03/02 05:46:37;;;;;;;30.10;18.05;;;;;;;;;;4956447;28;20117;-77
2022/03/02 05:49:04;;;;;;;34.95;19.98;;;;;;;;;;4960129;28;20093;-77
2022/03/02 05:51:30;;;;;;;35.10;20.33;;;;;;;;;;4934177;28;20532;-77
2022/03/02 05:53:58;;;;;;;33.80;19.55;;;;;;;;;;4950534;28;20070;-77
2022/03/02 05:56:25;;;;;;;35.40;19.58;;;;;;;;;;4943257;28;20054;-77
2022/03/02 05:58:51;;;;;;;35.30;20.40;;;;;;;;;;4950429;28;20031;-77
2022/03/02 06:01:17;;;;;;;37.70;20.95;;;;;;;;;;4946553;28;20609;-77
2022/03/02 06:03:46;;;;;;;32.13;19.35;;;;;;;;;;4948783;28;20030;-77
2022/03/02 06:06:12;;;;;;;34.30;19.20;;;;;;;;;;4956976;28;20043;-77
2022/03/02 06:08:37;;;;;;;36.42;20.58;;;;;;;;;;4937847;28;20522;-77
2022/03/02 06:11:03;;;;;;;39.38;21.02;;;;;;;;;;4961747;28;20062;-77
2022/03/02 06:13:30;;;;;;;35.17;19.23;;;;;;;;;;4951224;28;20150;-77
2022/03/02 06:15:57;;;;;;;36.17;20.75;;;;;;;;;;4957707;28;20045;-77
2022/03/02 06:18:24;;;;;;;35.15;18.70;;;;;;;;;;4962399;28;20559;-77
2022/03/02 06:20:51;;;;;;;36.75;20.10;;;;;;;;;;4965862;28;20048;-77
2022/03/02 06:23:20;;;;;;;35.20;20.15;;;;;;;;;;4965264;28;20097;-77
2022/03/02 06:25:48;;;;;;;34.75;19.45;;;;;;;;;;4942129;28;20038;-77
2022/03/02 06:28:14;;;;;;;33.63;20.73;;;;;;;;;;4962948;28;20154;-77
2022/03/02 06:30:43;;;;;;;35.25;20.15;;;;;;;;;;4966962;28;20062;-77
2022/03/02 06:33:09;;;;;;;35.10;19.98;;;;;;;;;;4950490;28;20597;-77
2022/03/02 06:35:38;;;;;;;37.65;19.67;;;;;;;;;;4968509;28;20491;-77
2022/03/02 06:38:03;;;;;;;36.38;20.15;;;;;;;;;;4967756;28;22291;-77
2022/03/02 06:40:29;;;;;;;38.72;19.83;;;;;;;;;;4975005;28;20392;-77
2022/03/02 06:43:07;;;;;;;37.22;20.10;;;;;;;;;;4966314;28;20377;-77
2022/03/02 06:45:51;;;;;;;34.30;19.67;;;;;;;;;;4967238;28;20049;-79
2022/03/02 06:48:22;;;;;;;32.88;18.92;;;;;;;;;;4966762;28;20047;-79
2022/03/02 06:50:52;;;;;;;31.17;19.58;;;;;;;;;;4966825;28;20047;-79
2022/03/02 06:53:18;;;;;;;33.20;20.23;;;;;;;;;;4967814;28;20053;-79
2022/03/02 06:55:44;;;;;;;35.83;21.15;;;;;;;;;;4954044;28;20039;-79
2022/03/02 06:58:12;;;;;;;36.05;19.35;;;;;;;;;;4970391;28;20602;-79
2022/03/02 07:00:39;;;;;;;32.72;19.55;;;;;;;;;;4953073;28;20046;-79
2022/03/02 07:03:09;;;;;;;34.22;20.05;;;;;;;;;;4950055;28;20130;-79
2022/03/02 07:05:36;;;;;;;41.72;20.58;;;;;;;;;;4990139;28;20039;-79
2022/03/02 07:08:04;;;;;;;33.40;20.25;;;;;;;;;;4947298;28;20107;-79
2022/03/02 07:10:33;;;;;;;36.90;20.40;;;;;;;;;;4950741;28;20070;-79
2022/03/02 07:13:05;;;;;;;36.88;22.30;;;;;;;;;;4983498;28;20476;-79
2022/03/02 07:15:32;;;;;;;34.28;20.92;;;;;;;;;;4955316;28;20606;-79
2022/03/02 07:17:59;;;;;;;39.63;20.27;;;;;;;;;;4969058;28;20051;-79
2022/03/02 07:20:27;;;;;;;41.35;21.90;;;;;;;;;;4968117;28;20034;-79
2022/03/02 07:22:55;;;;;;;40.75;22.92;;;;;;;;;;4965400;28;20166;-79
2022/03/02 07:25:33;;;;;;;44.33;23.13;;;;;;;;;;4960378;28;20496;-79
2022/03/02 07:28:01;;;;;;;39.80;24.88;;;;;;;;;;4963171;28;20047;-79
2022/03/02 07:30:29;;;;;;;40.15;23.98;;;;;;;;;;4953676;28;20042;-79
2022/03/02 07:33:07;;;;;;;40.00;22.95;;;;;;;;;;4955927;28;20054;-79
2022/03/02 07:35:36;;;;;;;40.70;24.15;;;;;;;;;;4935210;28;20049;-79
2022/03/02 07:38:08;;;;;;;40.85;23.00;;;;;;;;;;4952546;28;20043;-79
2022/03/02 07:40:35;;;;;;;41.75;22.75;;;;;;;;;;4967333;28;20046;-79
2022/03/02 07:43:01;;;;;;;39.33;23.23;;;;;;;;;;4965874;28;20617;-79
2022/03/02 07:45:28;;;;;;;42.95;24.38;;;;;;;;;;4949459;28;20061;-79
2022/03/02 07:47:56;;;;;;;40.80;23.33;;;;;;;;;;4948352;28;20496;-80
2022/03/02 07:50:22;;;;;;;43.03;23.90;;;;;;;;;;4940570;28;20286;-78
2022/03/02 07:52:51;;;;;;;42.92;24.52;;;;;;;;;;4960441;28;20484;-78
2022/03/02 07:55:17;;;;;;;44.33;25.10;;;;;;;;;;4953150;28;20043;-79
2022/03/02 07:57:44;;;;;;;47.95;25.65;;;;;;;;;;4945972;28;20035;-80
2022/03/02 08:00:12;;;;;;;39.88;24.48;;;;;;;;;;4968397;28;20061;-80
2022/03/02 08:02:40;;;;;;;40.55;25.75;;;;;;;;;;4967345;28;20039;-80
2022/03/02 08:05:07;;;;;;;48.80;25.52;;;;;;;;;;4949910;28;20057;-80
2022/03/02 08:07:36;;;;;;;47.13;26.55;;;;;;;;;;4969879;28;20038;-80
2022/03/02 08:10:05;;;;;;;45.88;25.25;;;;;;;;;;4982743;28;20038;-80
2022/03/02 08:12:33;;;;;;;52.03;26.83;;;;;;;;;;4967708;28;20498;-79
2022/03/02 08:15:01;;;;;;;42.47;27.02;;;;;;;;;;4953754;28;20130;-79
2022/03/02 08:17:27;;;;;;;55.40;29.20;;;;;;;;;;4968597;28;20058;-79
2022/03/02 08:19:53;;;;;;;72.05;36.95;;;;;;;;;;4956911;28;20043;-80
2022/03/02 08:22:23;;;;;;;53.38;30.48;;;;;;;;;;4968075;28;20658;-80
2022/03/02 08:25:03;;;;;;;46.90;28.98;;;;;;;;;;4973408;28;20416;-79
2022/03/02 08:27:30;;;;;;;55.38;30.35;;;;;;;;;;4985306;28;20086;-80
2022/03/02 08:29:57;;;;;;;60.38;28.58;;;;;;;;;;4968393;28;20038;-80
2022/03/02 08:32:24;;;;;;;52.78;29.10;;;;;;;;;;4966192;28;20125;-80
2022/03/02 08:34:51;;;;;;;52.42;28.02;;;;;;;;;;4965270;28;20046;-80
2022/03/02 08:37:18;;;;;;;44.33;25.98;;;;;;;;;;4949254;28;20420;-80
2022/03/02 08:39:44;;;;;;;43.97;25.85;;;;;;;;;;4966378;28;20109;-80
2022/03/02 08:42:11;;;;;;;46.22;25.92;;;;;;;;;;4947277;28;20094;-80
2022/03/02 08:44:37;;;;;;;41.47;25.63;;;;;;;;;;4939809;28;20089;-80
2022/03/02 08:47:03;;;;;;;46.15;28.48;;;;;;;;;;4965454;28;20050;-79
2022/03/02 08:49:28;;;;;;;47.35;26.17;;;;;;;;;;4945066;28;20038;-79
2022/03/02 08:51:55;;;;;;;46.33;24.75;;;;;;;;;;4948018;28;20071;-81
2022/03/02 08:54:23;;;;;;;42.20;25.58;;;;;;;;;;4952041;28;20435;-78
2022/03/02 08:56:49;;;;;;;41.58;24.13;;;;;;;;;;4932402;28;20043;-78
2022/03/02 08:59:20;;;;;;;41.90;24.75;;;;;;;;;;4951618;28;20050;-78
2022/03/02 09:01:51;;;;;;;45.80;26.33;;;;;;;;;;4944094;28;20526;-78
2022/03/02 09:04:18;;;;;;;44.42;25.58;;;;;;;;;;4961638;28;20415;-78
2022/03/02 09:06:45;;;;;;;43.03;23.50;;;;;;;;;;4962510;28;20045;-79
2022/03/02 09:09:11;;;;;;;47.58;26.00;;;;;;;;;;4944514;28;20480;-78
2022/03/02 09:11:38;;;;;;;53.42;26.42;;;;;;;;;;4949076;28;20036;-78
2022/03/02 09:14:04;;;;;;;45.70;26.33;;;;;;;;;;4953450;28;20411;-78
2022/03/02 09:16:30;;;;;;;47.47;25.95;;;;;;;;;;4939398;28;20047;-78
2022/03/02 09:18:56;;;;;;;45.15;25.15;;;;;;;;;;4960409;28;20077;-78
2022/03/02 09:21:23;;;;;;;45.17;25.17;;;;;;;;;;4946234;28;20264;-78
2022/03/02 09:23:49;;;;;;;40.17;22.85;;;;;;;;;;4931117;28;20054;-78
2022/03/02 09:26:17;;;;;;;43.08;25.88;;;;;;;;;;4943668;28;20047;-79
2022/03/02 09:28:46;;;;;;;37.47;23.35;;;;;;;;;;4960474;28;20035;-78
2022/03/02 09:31:14;;;;;;;43.33;24.33;;;;;;;;;;4958325;28;20048;-78
2022/03/02 09:33:40;;;;;;;35.15;21.65;;;;;;;;;;4935966;29;20035;-79
2022/03/02 09:36:08;;;;;;;36.28;20.70;;;;;;;;;;4947215;28;20054;-79
2022/03/02 09:38:34;;;;;;;35.72;21.05;;;;;;;;;;4962830;28;20054;-79
2022/03/02 09:41:05;;;;;;;38.15;21.48;;;;;;;;;;4945591;28;20047;-80
2022/03/02 09:43:32;;;;;;;29.35;20.48;;;;;;;;;;4960962;28;20493;-79
2022/03/02 09:46:02;;;;;;;34.85;20.08;;;;;;;;;;4943877;28;20054;-78
2022/03/02 09:48:31;;;;;;;30.88;18.75;;;;;;;;;;4947575;28;20526;-79
2022/03/02 09:51:03;;;;;;;30.88;18.25;;;;;;;;;;4963307;28;20134;-79
2022/03/02 09:53:30;;;;;;;27.70;18.10;;;;;;;;;;4950615;28;20408;-81
2022/03/02 09:55:58;;;;;;;29.88;17.55;;;;;;;;;;4966587;28;20051;-78
2022/03/02 09:58:25;;;;;;;25.73;16.98;;;;;;;;;;4965191;28;20043;-78
2022/03/02 10:00:55;;;;;;;31.52;18.45;;;;;;;;;;4962412;28;20519;-80
2022/03/02 10:03:24;;;;;;;28.35;17.80;;;;;;;;;;4968303;28;20038;-79
2022/03/02 10:05:50;;;;;;;28.65;18.52;;;;;;;;;;4966409;28;20039;-79
2022/03/02 10:08:19;;;;;;;28.23;18.35;;;;;;;;;;4934932;28;20069;-79
2022/03/02 10:10:48;;;;;;;32.30;18.67;;;;;;;;;;4959107;28;20042;-80
2022/03/02 10:13:16;;;;;;;30.58;17.30;;;;;;;;;;4944958;28;20356;-78
2022/03/02 10:15:42;;;;;;;27.15;17.75;;;;;;;;;;4961252;28;20039;-79
2022/03/02 10:18:11;;;;;;;25.58;16.77;;;;;;;;;;4966837;28;20736;-79
2022/03/02 10:20:39;;;;;;;23.17;15.95;;;;;;;;;;4951034;28;20050;-79
2022/03/02 10:23:42;;;;;;;26.45;15.57;;;;;;;;;;4954383;28;20158;-81
2022/03/02 10:26:16;;;;;;;24.48;17.38;;;;;;;;;;4950973;28;20506;-82
2022/03/02 10:28:45;;;;;;;24.70;17.27;;;;;;;;;;4966755;28;20039;-81
2022/03/02 10:31:29;;;;;;;27.25;18.10;;;;;;;;;;4966900;28;20402;-80
2022/03/02 10:33:57;;;;;;;24.17;17.48;;;;;;;;;;4948680;28;20066;-80
2022/03/02 10:36:28;;;;;;;25.92;16.90;;;;;;;;;;4947390;28;20059;-80
2022/03/02 10:39:00;;;;;;;22.63;16.77;;;;;;;;;;4951300;28;20090;-81
2022/03/02 10:41:28;;;;;;;25.17;18.33;;;;;;;;;;4960331;28;20526;-81
2022/03/02 10:44:05;;;;;;;20.95;15.82;;;;;;;;;;4951353;28;20431;-82
2022/03/02 10:46:31;;;;;;;24.55;17.83;;;;;;;;;;4948828;28;20139;-80
2022/03/02 10:49:11;;;;;;;22.70;17.20;;;;;;;;;;4932416;28;20086;-80
2022/03/02 10:51:37;;;;;;;22.27;16.38;;;;;;;;;;4956465;28;20461;-81
2022/03/02 10:54:05;;;;;;;24.95;17.23;;;;;;;;;;4931173;29;20035;-81
2022/03/02 10:56:38;;;;;;;19.88;17.02;;;;;;;;;;4939303;28;20098;-82
2022/03/02 10:59:06;;;;;;;22.90;17.23;;;;;;;;;;4958923;28;20062;-83
2022/03/02 11:01:33;;;;;;;23.20;16.75;;;;;;;;;;4934894;28;20035;-82
2022/03/02 11:03:59;;;;;;;21.13;14.32;;;;;;;;;;4962114;28;20492;-83
2022/03/02 11:06:27;;;;;;;23.08;15.30;;;;;;;;;;4958981;28;20046;-82
2022/03/02 11:08:55;;;;;;;20.77;14.77;;;;;;;;;;4941944;28;20456;-81
2022/03/02 11:11:21;;;;;;;18.00;14.25;;;;;;;;;;4965494;28;20034;-81
2022/03/02 11:13:50;;;;;;;21.50;14.18;;;;;;;;;;4962484;28;20059;-81
2022/03/02 11:16:21;;;;;;;19.08;13.52;;;;;;;;;;4965665;28;20093;-81
2022/03/02 11:18:52;;;;;;;22.40;15.13;;;;;;;;;;4941484;28;20059;-83
2022/03/02 11:21:24;;;;;;;18.05;13.43;;;;;;;;;;4940461;28;20134;-81
2022/03/02 11:23:57;;;;;;;17.30;12.45;;;;;;;;;;4966557;28;20426;-81
2022/03/02 11:26:35;;;;;;;17.25;13.40;;;;;;;;;;4943968;28;20039;-82
2022/03/02 11:29:11;;;;;;;17.45;13.32;;;;;;;;;;4967005;28;20479;-82
2022/03/02 11:31:44;;;;;;;16.80;13.32;;;;;;;;;;4959256;28;20568;-82
2022/03/02 11:34:20;;;;;;;21.20;12.55;;;;;;;;;;4968336;28;20129;-81
2022/03/02 11:36:48;;;;;;;14.52;11.65;;;;;;;;;;4952820;28;20043;-82
2022/03/02 11:39:15;;;;;;;13.55;10.27;;;;;;;;;;4968306;28;20408;-82
2022/03/02 11:41:44;;;;;;;12.40;9.88;;;;;;;;;;4949582;28;20365;-81
2022/03/02 11:44:36;;;;;;;15.90;10.88;;;;;;;;;;4948230;28;20559;-81
2022/03/02 11:47:05;;;;;;;11.25;9.57;;;;;;;;;;4982341;28;20063;-81
2022/03/02 11:49:43;;;;;;;11.02;8.85;;;;;;;;;;4949163;28;20037;-81
2022/03/02 11:52:12;;;;;;;12.07;10.25;;;;;;;;;;4967983;28;20077;-81
2022/03/02 11:54:43;;;;;;;12.93;9.85;;;;;;;;;;4940764;28;20114;-81
2022/03/02 11:57:09;;;;;;;13.60;10.40;;;;;;;;;;4957168;28;20131;-80
2022/03/02 11:59:37;;;;;;;12.43;9.45;;;;;;;;;;4955850;28;20035;-79
2022/03/02 12:02:13;;;;;;;10.38;7.22;;;;;;;;;;4954109;28;20425;-80
2022/03/02 12:04:42;;;;;;;9.50;7.97;;;;;;;;;;4954981;28;20126;-80
2022/03/02 12:07:08;;;;;;;12.07;7.78;;;;;;;;;;4964208;28;20043;-80
2022/03/02 12:09:37;;;;;;;9.05;7.38;;;;;;;;;;4948386;28;20483;-80
2022/03/02 12:12:25;;;;;;;10.45;7.40;;;;;;;;;;4954790;28;20090;-80
2022/03/02 12:14:55;;;;;;;9.07;6.55;;;;;;;;;;4966812;28;20475;-79
2022/03/02 12:17:33;;;;;;;8.35;7.03;;;;;;;;;;4963152;28;20070;-79
2022/03/02 12:20:07;;;;;;;10.48;7.38;;;;;;;;;;4962314;28;20038;-79
2022/03/02 12:22:41;;;;;;;10.52;7.75;;;;;;;;;;4950259;28;20035;-81
2022/03/02 12:25:09;;;;;;;10.63;8.23;;;;;;;;;;4965627;28;20404;-81
2022/03/02 12:27:35;;;;;;;10.48;7.47;;;;;;;;;;4932666;28;20041;-81
2022/03/02 12:30:05;;;;;;;11.23;6.95;;;;;;;;;;4937910;28;20508;-81
2022/03/02 12:32:34;;;;;;;10.32;6.55;;;;;;;;;;4945312;28;20258;-80
2022/03/02 12:35:02;;;;;;;10.35;6.43;;;;;;;;;;4941978;28;20122;-81
2022/03/02 12:37:30;;;;;;;10.80;6.32;;;;;;;;;;4950157;28;20360;-80
2022/03/02 12:39:56;;;;;;;8.35;6.15;;;;;;;;;;4947001;28;20077;-80
2022/03/02 12:42:22;;;;;;;8.93;6.20;;;;;;;;;;4924684;28;20505;-80
2022/03/02 12:44:51;;;;;;;7.70;5.78;;;;;;;;;;4937527;28;20162;-80
2022/03/02 12:47:19;;;;;;;8.23;6.10;;;;;;;;;;4943752;28;20071;-80
2022/03/02 12:49:49;;;;;;;11.75;7.13;;;;;;;;;;4944597;28;20098;-81
2022/03/02 12:52:15;;;;;;;12.40;7.50;;;;;;;;;;4956960;28;20082;-80
2022/03/02 12:54:43;;;;;;;9.18;7.05;;;;;;;;;;4930190;28;20051;-81
2022/03/02 12:57:11;;;;;;;13.90;6.97;;;;;;;;;;4946152;28;20061;-80
2022/03/02 12:59:37;;;;;;;10.57;7.40;;;;;;;;;;4941919;28;20143;-81
2022/03/02 13:02:10;;;;;;;10.55;7.95;;;;;;;;;;4943459;28;20496;-81
2022/03/02 13:04:58;;;;;;;11.05;7.70;;;;;;;;;;4926951;28;20138;-81
2022/03/02 13:07:32;;;;;;;10.25;7.43;;;;;;;;;;4948096;28;20042;-80
2022/03/02 13:10:00;;;;;;;12.73;8.73;;;;;;;;;;4962937;28;20051;-80
2022/03/02 13:12:37;;;;;;;13.35;8.30;;;;;;;;;;4962597;28;20072;-80
2022/03/02 13:15:24;;;;;;;12.70;8.57;;;;;;;;;;4935006;28;20094;-81
2022/03/02 13:18:10;;;;;;;11.52;8.68;;;;;;;;;;4959924;28;20058;-80
2022/03/02 13:20:35;;;;;;;9.90;6.57;;;;;;;;;;4960357;28;20117;-80
2022/03/02 13:23:12;;;;;;;11.93;8.23;;;;;;;;;;4948715;28;20305;-81
2022/03/02 13:25:38;;;;;;;13.95;8.93;;;;;;;;;;4951016;28;20050;-81
2022/03/02 13:28:09;;;;;;;12.43;8.35;;;;;;;;;;4960091;28;20519;-81
2022/03/02 13:30:34;;;;;;;12.57;7.82;;;;;;;;;;4957601;28;20058;-81
2022/03/02 13:33:05;;;;;;;10.77;7.55;;;;;;;;;;4965257;28;20070;-80
2022/03/02 13:35:33;;;;;;;9.23;6.88;;;;;;;;;;4955160;28;20042;-81
2022/03/02 13:38:03;;;;;;;10.60;7.00;;;;;;;;;;4955646;28;20611;-81
2022/03/02 13:40:32;;;;;;;11.25;7.60;;;;;;;;;;4952433;28;20264;-82
2022/03/02 13:43:07;;;;;;;12.82;7.93;;;;;;;;;;4955664;28;20074;-81
2022/03/02 13:45:34;;;;;;;11.13;8.13;;;;;;;;;;4955992;28;20107;-80
2022/03/02 13:48:25;;;;;;;17.05;8.98;;;;;;;;;;4944956;28;20039;-82
2022/03/02 13:51:10;;;;;;;11.88;8.10;;;;;;;;;;4963671;28;20054;-82
2022/03/02 13:53:38;;;;;;;14.60;9.07;;;;;;;;;;4934915;28;20039;-82
2022/03/02 13:56:06;;;;;;;12.98;9.02;;;;;;;;;;4943616;28;20043;-82
2022/03/02 13:58:33;;;;;;;15.32;8.50;;;;;;;;;;4951625;28;20049;-82
2022/03/02 14:01:21;;;;;;;10.50;7.85;;;;;;;;;;4949071;28;20163;-82
2022/03/02 14:04:04;;;;;;;13.95;9.02;;;;;;;;;;4952369;28;20079;-81
2022/03/02 14:06:30;;;;;;;12.20;8.80;;;;;;;;;;4967781;28;20090;-81
2022/03/02 14:08:57;;;;;;;12.40;8.90;;;;;;;;;;4949129;28;20109;-81
2022/03/02 14:11:39;;;;;;;14.27;8.52;;;;;;;;;;4963736;28;20042;-82
2022/03/02 14:14:07;;;;;;;12.90;8.82;;;;;;;;;;4980692;28;20050;-82
2022/03/02 14:16:33;;;;;;;12.27;9.00;;;;;;;;;;4949632;28;20057;-82
2022/03/02 14:19:07;;;;;;;12.98;8.77;;;;;;;;;;4971921;28;20126;-82
2022/03/02 14:21:35;;;;;;;13.18;9.25;;;;;;;;;;4960123;28;20098;-82
2022/03/02 14:24:16;;;;;;;14.90;9.32;;;;;;;;;;4952452;28;20409;-82
2022/03/02 14:26:52;;;;;;;14.77;9.73;;;;;;;;;;4941762;28;20047;-82